Time;durP1;ratioP1;P1;durP2;ratioP2;P2;SDS_P1;SDS_P2;PMS_P1;PMS_P2;Temp;Humidity;BMP_temperature;BMP_pressure;BME280_temperature;BME280_humidity;BME280_pressure;Samples;Min_cycle;Max_cycle;Signal;HPM_P1;HPM_P2
2021/12/30 00:04:59;;;;;;;441.02;215.50;;;;;;;-1.27;100.00;98649.79;4229375;83;21082;-85
2021/12/30 00:11:02;;;;;;;451.43;218.15;;;;;;;-1.17;100.00;98644.15;4218882;83;21010;-85
2021/12/30 00:17:04;;;;;;;461.40;225.07;;;;;;;-1.17;100.00;98644.15;4134356;85;21046;-84
2021/12/30 00:23:08;;;;;;;422.60;201.32;;;;;;;-1.17;100.00;98657.58;4222336;83;21645;-84
2021/12/30 00:29:09;;;;;;;446.55;222.45;;;;;;;-1.13;100.00;98657.23;4135921;85;21046;-85
2021/12/30 00:35:12;;;;;;;457.58;236.07;;;;;;;-1.16;100.00;98668.02;4183142;84;21079;-84
2021/12/30 00:41:14;;;;;;;415.15;210.85;;;;;;;-1.09;100.00;98675.11;4180611;84;21006;-85
2021/12/30 00:47:15;;;;;;;415.95;212.65;;;;;;;-1.01;100.00;98680.28;4157994;84;21065;-85
2021/12/30 00:53:16;;;;;;;446.37;226.60;;;;;;;-0.98;100.00;98679.67;4169854;84;22611;-84
2021/12/30 00:59:18;;;;;;;466.32;230.70;;;;;;;-1.01;100.00;98673.03;4181122;84;21335;-84
2021/12/30 01:05:19;;;;;;;497.73;243.40;;;;;;;-1.01;100.00;98673.03;4200340;83;21054;-85
2021/12/30 01:11:23;;;;;;;472.52;237.25;;;;;;;-0.82;100.00;98689.73;4205195;83;21683;-85
2021/12/30 01:23:27;;;;;;;464.35;234.30;;;;;;;-0.73;100.00;98692.45;4200199;84;21042;-85
2021/12/30 01:29:30;;;;;;;464.10;231.00;;;;;;;-0.73;100.00;98690.57;4190057;84;21015;-85
2021/12/30 01:35:32;;;;;;;486.08;241.60;;;;;;;-0.77;100.00;98676.72;4197336;83;21050;-85
2021/12/30 01:41:33;;;;;;;423.40;212.55;;;;;;;-0.77;100.00;98697.67;4194534;84;21054;-84
2021/12/30 01:47:37;;;;;;;433.50;219.68;;;;;;;-0.76;100.00;98697.11;4195788;83;21096;-85
2021/12/30 01:53:38;;;;;;;492.12;242.22;;;;;;;-0.84;100.00;98700.53;4174863;84;21119;-85
2021/12/30 01:59:40;;;;;;;485.57;236.72;;;;;;;-0.87;100.00;98707.33;4194105;84;21001;-86
2021/12/30 02:05:43;;;;;;;475.30;228.67;;;;;;;-0.87;100.00;98707.33;4186853;84;21078;-84
2021/12/30 02:11:44;;;;;;;436.90;215.70;;;;;;;-0.86;100.00;98694.12;4169010;84;21078;-85
2021/12/30 02:17:48;;;;;;;470.57;228.50;;;;;;;-0.91;100.00;98686.76;4185112;84;21573;-84
2021/12/30 02:23:50;;;;;;;458.20;228.65;;;;;;;-0.90;100.00;98684.30;4190696;84;21061;-84
2021/12/30 02:29:51;;;;;;;439.10;218.78;;;;;;;-0.93;100.00;98684.92;4185334;84;21055;-83
2021/12/30 02:35:54;;;;;;;456.63;226.35;;;;;;;-0.98;100.00;98682.36;4202504;84;21515;-84
2021/12/30 02:41:56;;;;;;;444.93;211.22;;;;;;;-1.15;100.00;98699.17;4193063;83;20983;-84
2021/12/30 02:47:57;;;;;;;399.88;197.40;;;;;;;-1.19;100.00;98702.77;4170624;84;22716;-84
2021/12/30 02:53:59;;;;;;;430.50;209.37;;;;;;;-1.19;100.00;98708.14;4194712;84;21094;-84
2021/12/30 03:00:01;;;;;;;430.97;212.47;;;;;;;-1.17;100.00;98699.21;4173476;84;21057;-85
2021/12/30 03:06:07;;;;;;;385.32;193.87;;;;;;;-1.15;100.00;98688.42;4265643;82;21518;-85
2021/12/30 03:12:09;;;;;;;433.85;210.00;;;;;;;-1.13;100.00;98680.86;4272502;82;21069;-84
2021/12/30 03:18:10;;;;;;;431.70;209.07;;;;;;;-1.09;100.00;98681.02;4279400;82;21011;-84
2021/12/30 03:24:11;;;;;;;430.85;213.97;;;;;;;-1.04;100.00;98681.70;4252651;81;21637;-84
2021/12/30 03:30:16;;;;;;;447.37;219.70;;;;;;;-1.04;100.00;98681.70;4271244;82;21550;-85
2021/12/30 03:36:20;;;;;;;423.58;215.32;;;;;;;-1.01;100.00;98708.49;4268504;82;21037;-85
2021/12/30 03:42:21;;;;;;;429.83;216.15;;;;;;;-0.98;100.00;98721.31;4254050;82;21360;-84
2021/12/30 03:48:24;;;;;;;449.05;223.87;;;;;;;-0.95;100.00;98738.97;4282927;82;21025;-83
2021/12/30 03:54:25;;;;;;;422.02;213.43;;;;;;;-0.88;100.00;98742.57;4260814;82;21070;-85
2021/12/30 04:00:28;;;;;;;432.98;221.47;;;;;;;-0.85;100.00;98760.77;4269636;82;21624;-84
2021/12/30 04:06:29;;;;;;;437.07;220.03;;;;;;;-0.80;100.00;98765.45;4263900;82;21047;-84
2021/12/30 04:12:31;;;;;;;429.75;215.90;;;;;;;-0.77;100.00;98748.74;4275023;81;21007;-85
2021/12/30 04:18:33;;;;;;;410.05;206.43;;;;;;;-0.97;100.00;98716.20;4255200;82;21045;-84
2021/12/30 04:24:35;;;;;;;418.27;205.20;;;;;;;-0.71;100.00;98764.98;4273992;82;21529;-84
2021/12/30 04:30:36;;;;;;;372.50;187.15;;;;;;;-0.73;100.00;98765.03;4260798;82;21033;-85
2021/12/30 04:36:39;;;;;;;383.87;192.60;;;;;;;-0.79;100.00;98775.13;4263492;81;21057;-84
2021/12/30 04:42:42;;;;;;;418.33;207.92;;;;;;;-0.79;100.00;98775.13;4270621;82;21071;-86
2021/12/30 04:48:43;;;;;;;405.90;199.97;;;;;;;-0.73;100.00;98794.59;4262883;82;21062;-84
2021/12/30 04:54:44;;;;;;;363.02;180.07;;;;;;;-0.66;100.00;98799.01;4199689;82;25942;-85
2021/12/30 05:00:46;;;;;;;345.90;173.70;;;;;;;-0.58;100.00;98803.65;4129011;84;21049;-85
2021/12/30 05:06:47;;;;;;;337.05;161.97;;;;;;;-0.54;100.00;98804.07;4127674;84;21690;-88
2021/12/30 05:12:49;;;;;;;323.48;158.37;;;;;;;-0.47;100.00;98816.52;4129914;84;21062;-84
2021/12/30 05:18:55;;;;;;;326.42;158.85;;;;;;;-0.44;100.00;98823.97;4130921;84;22589;-85
2021/12/30 05:24:54;;;;;;;353.58;168.28;;;;;;;-0.41;100.00;98822.58;4134083;84;21086;-86
2021/12/30 05:30:55;;;;;;;340.70;167.53;;;;;;;-0.41;100.00;98822.58;4132682;84;21181;-85
2021/12/30 05:36:57;;;;;;;409.98;198.28;;;;;;;-0.52;100.00;98803.77;4133078;84;21641;-85
2021/12/30 05:42:58;;;;;;;335.63;165.55;;;;;;;-0.42;100.00;98830.38;4132628;84;21099;-84
2021/12/30 05:49:00;;;;;;;334.83;165.00;;;;;;;-0.45;100.00;98806.25;4133670;84;21613;-84
2021/12/30 05:55:01;;;;;;;358.05;171.98;;;;;;;-0.48;100.00;98809.56;4133152;84;21034;-86
2021/12/30 06:01:03;;;;;;;353.12;172.57;;;;;;;-0.48;100.00;98836.99;4129477;84;21030;-84
2021/12/30 06:07:04;;;;;;;323.70;156.57;;;;;;;-0.49;100.00;98828.15;4131748;84;21074;-85
2021/12/30 06:13:05;;;;;;;320.80;153.53;;;;;;;-0.50;100.00;98817.70;4129774;84;21053;-85
2021/12/30 06:19:07;;;;;;;314.72;151.20;;;;;;;-0.60;100.00;98806.64;4128915;84;21066;-85
2021/12/30 06:25:11;;;;;;;321.02;156.12;;;;;;;-0.48;100.00;98828.38;4057308;87;21082;-85
2021/12/30 06:31:13;;;;;;;312.23;152.20;;;;;;;-0.46;100.00;98840.98;4055703;86;21041;-85
2021/12/30 06:37:14;;;;;;;317.60;155.87;;;;;;;-0.46;100.00;98846.36;4052260;87;21014;-85
2021/12/30 06:43:15;;;;;;;324.75;157.75;;;;;;;-0.42;100.00;98858.62;3983382;88;21078;-84
2021/12/30 06:49:17;;;;;;;321.05;157.82;;;;;;;-0.37;100.00;98855.27;3987298;88;22053;-85
2021/12/30 06:55:18;;;;;;;296.68;146.00;;;;;;;-0.35;100.00;98871.09;3986218;87;21624;-84
2021/12/30 07:01:22;;;;;;;319.73;157.62;;;;;;;-0.37;100.00;98883.51;3984901;88;21067;-84
2021/12/30 07:07:23;;;;;;;348.07;166.15;;;;;;;-0.38;100.00;98901.30;3968435;88;21041;-85
2021/12/30 07:13:24;;;;;;;381.73;190.12;;;;;;;-0.39;100.00;98890.28;3989676;88;21073;-84
2021/12/30 07:19:25;;;;;;;426.75;214.25;;;;;;;-0.26;100.00;98879.47;3986049;88;21148;-84
2021/12/30 07:25:27;;;;;;;432.30;208.87;;;;;;;-0.26;100.00;98879.47;3983736;88;21498;-84
2021/12/30 07:31:29;;;;;;;400.38;206.50;;;;;;;-0.25;100.00;98852.03;3987291;88;22090;-87
2021/12/30 07:37:30;;;;;;;373.10;188.37;;;;;;;-0.25;100.00;98852.03;3990779;88;21440;-83
2021/12/30 07:43:33;;;;;;;367.75;189.80;;;;;;;-0.07;100.00;98874.69;3987849;88;21109;-85
2021/12/30 07:49:37;;;;;;;373.85;185.48;;;;;;;-0.03;100.00;98874.30;3985036;88;21552;-84
2021/12/30 07:55:38;;;;;;;373.82;193.72;;;;;;;0.06;100.00;98895.08;3985640;88;21086;-84
2021/12/30 08:01:40;;;;;;;363.87;196.55;;;;;;;0.11;100.00;98905.16;3998885;87;21665;-85
2021/12/30 08:07:45;;;;;;;359.12;186.12;;;;;;;0.20;100.00;98924.05;4142104;84;21071;-85
2021/12/30 08:13:46;;;;;;;407.08;215.03;;;;;;;0.20;100.00;98925.40;4143902;84;21566;-85
2021/12/30 08:19:48;;;;;;;415.23;211.32;;;;;;;0.30;100.00;98937.27;4144599;84;21573;-85
2021/12/30 08:25:51;;;;;;;400.35;206.35;;;;;;;0.37;100.00;98919.55;4069871;86;21627;-85
2021/12/30 08:31:53;;;;;;;377.95;197.53;;;;;;;0.43;100.00;98910.23;4141710;84;21081;-85
2021/12/30 08:37:54;;;;;;;417.53;221.22;;;;;;;0.51;100.00;98901.94;4063457;86;21587;-85
2021/12/30 08:43:56;;;;;;;389.17;212.00;;;;;;;0.51;100.00;98904.09;4143607;84;21034;-85
2021/12/30 08:49:59;;;;;;;396.18;206.43;;;;;;;0.56;100.00;98908.54;4144295;84;21911;-84
2021/12/30 08:56:00;;;;;;;409.33;216.53;;;;;;;0.57;100.00;98910.12;4141002;84;21733;-84
2021/12/30 09:02:07;;;;;;;384.60;206.85;;;;;;;0.65;100.00;98905.31;4133163;84;21046;-85
2021/12/30 09:08:08;;;;;;;;;;;;;;;0.73;100.00;98905.90;4057275;86;21074;-85
2021/12/30 09:14:13;;;;;;;453.60;234.00;;;;;;;0.78;100.00;98913.84;4057362;86;20209;-85
2021/12/30 09:20:15;;;;;;;454.90;233.65;;;;;;;0.89;100.00;98923.23;4052641;87;21171;-85
2021/12/30 09:26:16;;;;;;;430.98;224.50;;;;;;;1.01;100.00;98928.80;3987178;88;21643;-86
2021/12/30 09:32:17;;;;;;;436.20;226.42;;;;;;;1.11;100.00;98936.03;3981412;88;21115;-86
2021/12/30 09:38:20;;;;;;;426.70;227.40;;;;;;;1.19;100.00;98929.09;3987341;88;21077;-85
2021/12/30 09:44:22;;;;;;;443.48;230.95;;;;;;;1.24;100.00;98924.87;3987137;88;21080;-85
2021/12/30 09:50:29;;;;;;;438.00;225.72;;;;;;;1.26;100.00;98927.51;3988069;88;21068;-85
2021/12/30 09:56:31;;;;;;;455.60;244.97;;;;;;;1.38;100.00;98920.92;4033908;86;21150;-86
2021/12/30 10:02:32;;;;;;;465.95;259.77;;;;;;;1.39;100.00;98913.64;4016910;87;21060;-85
2021/12/30 10:08:42;;;;;;;447.70;235.40;;;;;;;1.40;100.00;98912.52;4161959;84;21122;-88
2021/12/30 10:14:40;;;;;;;;;;;;;;;1.39;100.00;98910.36;4164938;84;21097;-86
2021/12/30 10:20:42;;;;;;;432.70;227.30;;;;;;;1.40;100.00;98916.02;4162773;84;20204;-87
2021/12/30 10:26:56;;;;;;;409.70;213.80;;;;;;;1.45;100.00;98916.41;4160585;84;21513;-86
2021/12/30 10:33:17;;;;;;;426.25;226.12;;;;;;;1.53;100.00;98925.06;4160965;84;21042;-89
2021/12/30 10:39:30;;;;;;;435.65;226.25;;;;;;;1.57;100.00;98924.66;4160727;84;21498;-87
2021/12/30 10:45:31;;;;;;;414.57;220.25;;;;;;;1.68;100.00;98916.48;4163529;84;21118;-84
2021/12/30 10:51:47;;;;;;;405.65;216.90;;;;;;;1.75;100.00;98915.45;4162771;84;21113;-85
2021/12/30 10:57:49;;;;;;;415.77;220.95;;;;;;;1.84;100.00;98912.19;4149723;84;21071;-84
2021/12/30 11:04:00;;;;;;;417.63;223.03;;;;;;;1.90;100.00;98914.95;4135575;84;21046;-84
2021/12/30 11:10:01;;;;;;;405.75;215.97;;;;;;;1.91;100.00;98912.48;4127636;84;21082;-85
2021/12/30 11:16:03;;;;;;;401.52;214.40;;;;;;;1.90;100.00;98924.40;4135302;84;22316;-84
2021/12/30 11:22:12;;;;;;;383.98;202.62;;;;;;;1.89;100.00;98932.81;4127946;84;21018;-85
2021/12/30 11:28:14;;;;;;;391.30;208.60;;;;;;;1.90;100.00;98935.20;4124226;84;21066;-85
2021/12/30 11:34:16;;;;;;;382.40;198.85;;;;;;;1.92;100.00;98932.98;4130738;84;21095;-85
2021/12/30 11:40:23;;;;;;;355.25;184.67;;;;;;;1.98;100.00;98933.05;4129059;84;21759;-85
2021/12/30 11:46:45;;;;;;;344.25;179.07;;;;;;;2.04;100.00;98926.91;4134221;84;21486;-84
2021/12/30 11:53:12;;;;;;;326.95;171.65;;;;;;;2.01;100.00;98940.50;4056303;87;21041;-86
2021/12/30 11:59:14;;;;;;;286.75;148.30;;;;;;;1.96;100.00;98938.55;4057932;86;21100;-85
2021/12/30 12:05:43;;;;;;;298.55;159.43;;;;;;;1.97;100.00;98930.12;4143279;84;21137;-85
2021/12/30 12:11:52;;;;;;;241.33;125.33;;;;;;;1.96;100.00;98940.66;4143904;84;21089;-86
2021/12/30 12:17:59;;;;;;;261.05;135.63;;;;;;;2.04;100.00;98921.51;4064277;86;21011;-88
2021/12/30 12:24:28;;;;;;;262.63;136.92;;;;;;;2.07;100.00;98918.97;4140119;84;21181;-86
2021/12/30 12:30:35;;;;;;;303.92;152.53;;;;;;;2.11;100.00;98925.87;4142859;84;21145;-86
2021/12/30 12:36:38;;;;;;;354.45;161.90;;;;;;;2.11;100.00;98925.33;4142636;84;21620;-85
2021/12/30 12:42:55;;;;;;;342.23;157.37;;;;;;;2.19;100.00;98925.87;4142995;84;22117;-85
2021/12/30 12:48:57;;;;;;;274.30;134.82;;;;;;;2.26;100.00;98929.41;4142253;84;21070;-86
2021/12/30 12:54:58;;;;;;;219.68;114.47;;;;;;;2.25;100.00;98921.08;4143065;84;21062;-85
2021/12/30 13:01:01;;;;;;;217.37;110.90;;;;;;;2.25;100.00;98935.93;4120864;84;21079;-86
2021/12/30 13:07:18;;;;;;;220.10;113.70;;;;;;;2.37;100.00;98928.75;4155268;84;21014;-86
2021/12/30 13:13:32;;;;;;;218.78;112.03;;;;;;;2.37;100.00;98929.30;4068579;86;21090;-85
2021/12/30 13:19:38;;;;;;;210.57;110.00;;;;;;;2.31;100.00;98954.35;4090360;86;21030;-86
2021/12/30 13:25:39;;;;;;;201.37;102.85;;;;;;;2.30;100.00;98951.97;4092713;86;21602;-86
2021/12/30 13:31:41;;;;;;;208.43;104.60;;;;;;;2.36;100.00;98957.44;4094027;86;21079;-86
2021/12/30 13:38:08;;;;;;;202.50;103.07;;;;;;;2.37;100.00;98963.06;4095395;86;21074;-87
2021/12/30 13:44:10;;;;;;;212.72;106.75;;;;;;;2.40;100.00;98951.61;4094302;86;21038;-86
2021/12/30 13:50:16;;;;;;;208.15;108.90;;;;;;;2.27;100.00;98966.13;4085695;86;21677;-90
2021/12/30 13:56:29;;;;;;;209.00;104.27;;;;;;;2.25;100.00;98979.15;4088887;86;21085;-86
2021/12/30 14:02:30;;;;;;;194.10;100.10;;;;;;;2.25;100.00;99002.11;4065277;86;21137;-88
2021/12/30 14:08:32;;;;;;;195.90;101.47;;;;;;;2.28;100.00;98992.81;4060877;86;21618;-83
2021/12/30 14:14:35;;;;;;;181.35;96.05;;;;;;;2.29;100.00;98994.94;4071745;85;21609;-84
2021/12/30 14:20:40;;;;;;;193.35;101.95;;;;;;;2.25;100.00;99004.27;4064311;86;21144;-87
2021/12/30 14:26:44;;;;;;;205.77;109.65;;;;;;;2.47;100.00;98992.45;4065932;86;21082;-88
2021/12/30 14:32:46;;;;;;;198.47;106.40;;;;;;;2.54;100.00;98998.14;4063581;86;21043;-87
2021/12/30 14:38:47;;;;;;;196.72;107.05;;;;;;;2.52;100.00;98986.30;3991040;88;21155;-86
2021/12/30 14:45:00;;;;;;;237.75;125.85;;;;;;;2.52;100.00;98996.34;4132465;84;21057;-86
2021/12/30 14:51:19;;;;;;;215.22;119.15;;;;;;;2.56;100.00;98987.81;4131368;84;22027;-85
2021/12/30 14:57:24;;;;;;;199.90;107.65;;;;;;;2.70;100.00;98983.00;4131064;84;21049;-86
2021/12/30 15:03:25;;;;;;;213.22;112.90;;;;;;;2.56;100.00;98989.97;4092029;85;21107;-86
2021/12/30 15:09:26;;;;;;;193.13;101.95;;;;;;;2.55;100.00;98973.50;4094874;85;21107;-85
2021/12/30 15:15:29;;;;;;;193.28;105.05;;;;;;;2.66;100.00;98981.49;4097653;85;21129;-86
2021/12/30 15:21:31;;;;;;;209.83;115.15;;;;;;;2.61;100.00;98981.69;4094893;85;21066;-87
2021/12/30 15:27:32;;;;;;;193.97;104.35;;;;;;;2.69;100.00;98959.80;4098662;85;21114;-91
2021/12/30 15:33:34;;;;;;;165.97;90.10;;;;;;;2.69;100.00;98963.85;4015239;87;21039;-87
2021/12/30 15:39:35;;;;;;;149.27;81.30;;;;;;;2.74;100.00;98973.14;4094917;85;21062;-87
2021/12/30 15:45:37;;;;;;;158.72;84.22;;;;;;;2.82;100.00;98986.61;4097598;85;21149;-87
2021/12/30 15:51:41;;;;;;;191.90;105.78;;;;;;;2.83;100.00;98983.36;4093045;85;21078;-87
2021/12/30 15:57:42;;;;;;;178.15;99.97;;;;;;;2.93;100.00;98997.30;4096532;85;21070;-87
2021/12/30 16:03:43;;;;;;;194.30;108.03;;;;;;;3.03;100.00;98983.42;4127500;84;21039;-87
2021/12/30 16:09:45;;;;;;;193.10;102.92;;;;;;;3.05;100.00;99008.80;4049108;87;21592;-86
2021/12/30 16:15:46;;;;;;;170.57;92.95;;;;;;;3.07;100.00;99030.33;4054149;86;21096;-87
2021/12/30 16:21:48;;;;;;;192.70;102.47;;;;;;;3.02;100.00;99037.27;3984344;88;21075;-87
2021/12/30 16:27:51;;;;;;;189.95;108.35;;;;;;;3.06;100.00;99019.28;3984074;88;21101;-88
2021/12/30 16:33:53;;;;;;;196.60;109.63;;;;;;;3.14;100.00;99022.52;3984582;88;21127;-87
2021/12/30 16:39:55;;;;;;;196.25;107.60;;;;;;;3.14;100.00;99032.53;3982235;88;22440;-86
2021/12/30 16:45:59;;;;;;;218.02;121.17;;;;;;;3.15;100.00;99024.09;3984256;88;21158;-88
2021/12/30 16:52:00;;;;;;;210.50;116.03;;;;;;;3.12;100.00;99044.22;3982838;88;21194;-88
2021/12/30 16:58:01;;;;;;;182.27;98.62;;;;;;;3.14;100.00;99044.16;3986022;88;21141;-88
2021/12/30 17:04:05;;;;;;;139.12;75.60;;;;;;;3.13;100.00;99043.91;4133493;84;21023;-87
2021/12/30 17:10:09;;;;;;;130.52;71.92;;;;;;;3.14;100.00;99039.30;4132906;84;21066;-88
2021/12/30 17:16:10;;;;;;;115.72;60.48;;;;;;;3.19;100.00;99037.19;4066669;86;21502;-87
2021/12/30 17:22:12;;;;;;;102.30;56.13;;;;;;;3.17;100.00;99044.85;4073122;86;21055;-89
2021/12/30 17:28:13;;;;;;;83.60;44.08;;;;;;;3.15;100.00;99043.03;4074169;86;21023;-87
2021/12/30 17:34:15;;;;;;;88.72;49.10;;;;;;;3.10;100.00;99019.44;4072115;85;21544;-88
2021/12/30 17:40:18;;;;;;;90.10;49.63;;;;;;;3.07;100.00;99020.86;4074358;86;21170;-88
2021/12/30 17:46:21;;;;;;;94.13;53.40;;;;;;;3.07;100.00;99026.82;4052437;86;21605;-88
2021/12/30 17:52:24;;;;;;;89.42;48.33;;;;;;;3.11;100.00;99023.72;4054470;86;21700;-86
2021/12/30 17:58:25;;;;;;;110.55;58.28;;;;;;;3.01;100.00;99004.59;3954640;89;21088;-86
2021/12/30 18:04:27;;;;;;;113.05;57.38;;;;;;;2.99;100.00;99018.20;3992822;87;21054;-87
2021/12/30 18:10:29;;;;;;;119.25;60.73;;;;;;;2.94;100.00;99017.03;3993156;88;21611;-88
2021/12/30 18:16:34;;;;;;;85.85;44.95;;;;;;;2.97;100.00;99016.38;3990457;89;22390;-87
2021/12/30 18:22:35;;;;;;;91.95;47.65;;;;;;;3.10;100.00;99004.56;3980463;88;21070;-87
2021/12/30 18:28:37;;;;;;;112.55;57.43;;;;;;;3.11;100.00;99019.11;4006435;88;21186;-86
2021/12/30 18:34:39;;;;;;;111.25;57.13;;;;;;;3.00;100.00;99019.23;3953752;89;21158;-87
2021/12/30 18:40:41;;;;;;;135.07;74.95;;;;;;;3.01;100.00;99001.87;3946918;89;21030;-86
2021/12/30 18:46:43;;;;;;;114.75;64.15;;;;;;;2.97;100.00;99005.02;3956753;89;21086;-86
2021/12/30 18:52:47;;;;;;;125.30;69.90;;;;;;;2.99;100.00;98994.64;3955615;89;21061;-88
2021/12/30 18:58:49;;;;;;;120.50;62.30;;;;;;;2.92;100.00;98994.92;3950510;89;21154;-87
2021/12/30 19:04:50;;;;;;;142.90;75.65;;;;;;;2.87;100.00;99012.67;3954418;89;21075;-85
2021/12/30 19:10:53;;;;;;;150.55;80.65;;;;;;;2.75;100.00;99006.61;3945271;89;21665;-88
2021/12/30 19:16:54;;;;;;;145.60;81.75;;;;;;;2.69;100.00;99009.80;3946843;89;21105;-86
2021/12/30 19:22:56;;;;;;;172.07;92.08;;;;;;;2.71;100.00;99024.57;3946278;89;21087;-85
2021/12/30 19:28:59;;;;;;;149.45;83.42;;;;;;;2.66;100.00;99028.02;3954830;89;21597;-87
2021/12/30 19:35:04;;;;;;;151.40;84.50;;;;;;;2.62;100.00;99026.51;3946139;89;21085;-87
2021/12/30 19:41:08;;;;;;;164.62;91.78;;;;;;;2.60;100.00;99019.84;3948592;89;21150;-86
2021/12/30 19:47:11;;;;;;;190.50;101.53;;;;;;;2.65;100.00;99010.19;3946433;89;21086;-87
2021/12/30 19:53:14;;;;;;;192.95;101.97;;;;;;;2.69;100.00;99001.11;3954188;89;21111;-86
2021/12/30 19:59:17;;;;;;;217.00;120.15;;;;;;;2.73;100.00;99014.78;3950209;89;21057;-87
2021/12/30 20:05:19;;;;;;;184.82;104.65;;;;;;;2.82;100.00;99019.05;3951196;89;21211;-88
2021/12/30 20:11:21;;;;;;;145.53;80.57;;;;;;;2.90;100.00;99013.38;3952767;89;21130;-89
2021/12/30 20:17:23;;;;;;;139.25;70.10;;;;;;;3.05;100.00;99010.92;3952593;89;21071;-87
2021/12/30 20:23:24;;;;;;;129.63;70.67;;;;;;;3.24;100.00;98996.43;3943296;89;21174;-86
2021/12/30 20:29:26;;;;;;;133.70;71.62;;;;;;;3.29;100.00;99006.84;3948380;89;21701;-86
2021/12/30 20:35:30;;;;;;;142.65;75.03;;;;;;;3.29;100.00;98989.27;3945381;89;21074;-90
2021/12/30 20:41:31;;;;;;;117.80;62.60;;;;;;;3.32;100.00;98992.66;3950280;89;21077;-87
2021/12/30 20:47:32;;;;;;;119.22;64.03;;;;;;;3.31;100.00;98991.06;3948412;89;21060;-91
2021/12/30 20:53:35;;;;;;;112.17;61.08;;;;;;;3.28;100.00;99003.34;3954986;89;21162;-87
2021/12/30 20:59:37;;;;;;;119.60;62.88;;;;;;;3.26;100.00;99004.80;3946890;89;21177;-87
2021/12/30 21:05:39;;;;;;;114.70;61.23;;;;;;;3.23;100.00;99007.03;3947369;89;21106;-86
2021/12/30 21:11:41;;;;;;;118.33;60.67;;;;;;;3.19;100.00;98994.48;3953751;89;21122;-88
2021/12/30 21:17:43;;;;;;;115.50;63.13;;;;;;;3.21;100.00;98996.31;3951688;89;21098;-87
2021/12/30 21:23:45;;;;;;;129.00;69.40;;;;;;;3.26;100.00;98985.86;3970756;87;21077;-86
2021/12/30 21:29:48;;;;;;;127.60;64.67;;;;;;;3.28;100.00;98984.95;3929376;89;21154;-89
2021/12/30 21:35:53;;;;;;;108.63;56.98;;;;;;;3.24;100.00;98982.13;3953020;89;21520;-89
2021/12/30 21:41:54;;;;;;;107.85;58.70;;;;;;;3.22;100.00;98981.66;3946861;89;21113;-88
2021/12/30 21:47:56;;;;;;;120.57;65.50;;;;;;;3.23;100.00;98999.46;3951781;89;21103;-85
2021/12/30 21:53:57;;;;;;;114.82;61.80;;;;;;;3.24;100.00;98989.66;3950142;88;21093;-86
2021/12/30 21:59:59;;;;;;;119.37;69.70;;;;;;;3.34;100.00;98984.44;3943288;89;21803;-87
2021/12/30 22:06:01;;;;;;;117.60;65.08;;;;;;;3.38;100.00;98976.47;3947846;89;21114;-85
2021/12/30 22:12:03;;;;;;;109.03;61.35;;;;;;;3.38;100.00;98970.50;3957363;89;21129;-87
2021/12/30 22:18:07;;;;;;;110.68;60.83;;;;;;;3.38;100.00;98961.03;3948788;89;21610;-86
2021/12/30 22:24:09;;;;;;;112.90;62.90;;;;;;;3.37;100.00;98972.19;3944261;89;21521;-88
2021/12/30 22:30:13;;;;;;;115.47;63.30;;;;;;;3.42;100.00;98974.68;3951539;89;21689;-87
2021/12/30 22:36:14;;;;;;;130.00;71.05;;;;;;;3.46;100.00;98982.39;3943400;89;21090;-87
2021/12/30 22:42:17;;;;;;;101.92;57.78;;;;;;;3.46;100.00;98981.03;3951190;89;21159;-85
2021/12/30 22:48:18;;;;;;;100.18;57.27;;;;;;;3.39;100.00;98972.63;3949164;89;21083;-85
2021/12/30 22:54:20;;;;;;;96.42;52.13;;;;;;;3.42;100.00;98967.36;3942691;89;21162;-89
2021/12/30 23:00:37;;;;;;;80.55;47.70;;;;;;;3.57;100.00;98970.83;4002641;88;21065;-86
2021/12/30 23:06:38;;;;;;;80.53;43.00;;;;;;;3.64;100.00;98965.70;4001950;88;21070;-86
2021/12/30 23:12:40;;;;;;;73.75;42.05;;;;;;;3.74;100.00;98963.16;4002827;88;21661;-86
2021/12/30 23:18:42;;;;;;;70.37;41.00;;;;;;;3.77;100.00;98966.55;4003105;88;21066;-87
2021/12/30 23:24:43;;;;;;;72.50;40.50;;;;;;;3.85;100.00;98963.80;4002719;89;21134;-85
2021/12/30 23:30:46;;;;;;;64.95;37.13;;;;;;;3.93;100.00;98962.13;4002928;88;21043;-88
2021/12/30 23:36:47;;;;;;;68.62;37.23;;;;;;;4.06;100.00;98955.62;4002539;88;21627;-86
2021/12/30 23:42:49;;;;;;;69.00;35.68;;;;;;;4.17;100.00;98963.56;4002656;88;22154;-87
2021/12/30 23:48:51;;;;;;;67.15;35.98;;;;;;;4.29;100.00;98964.98;4002248;88;21083;-86
2021/12/30 23:54:54;;;;;;;55.05;32.93;;;;;;;4.46;100.00;98971.58;4000762;88;21109;-87
